Time;durP1;ratioP1;P1;durP2;ratioP2;P2;SDS_P1;SDS_P2;PMS_P1;PMS_P2;Temp;Humidity;BMP_temperature;BMP_pressure;BME280_temperature;BME280_humidity;BME280_pressure;Samples;Min_cycle;Max_cycle;Signal;HPM_P1;HPM_P2
2022/07/10 00:01:29;;;;;;;16.20;2.65;;;43.30;15.90;;;;;;5109372;28;20483;-65
2022/07/10 00:03:55;;;;;;;23.35;2.90;;;43.30;16.40;;;;;;5089406;28;20028;-61
2022/07/10 00:06:22;;;;;;;17.90;3.15;;;43.30;16.10;;;;;;5090666;28;20038;-65
2022/07/10 00:08:48;;;;;;;15.02;2.90;;;43.40;15.80;;;;;;5088500;28;20059;-64
2022/07/10 00:11:14;;;;;;;11.32;3.30;;;43.50;17.50;;;;;;5089650;28;20019;-64
2022/07/10 00:13:41;;;;;;;16.52;3.53;;;43.50;17.60;;;;;;5106351;28;20470;-67
2022/07/10 00:16:10;;;;;;;21.13;3.78;;;43.60;17.30;;;;;;5092422;28;20023;-64
2022/07/10 00:18:37;;;;;;;20.30;3.58;;;43.60;16.70;;;;;;5092857;28;20038;-63
2022/07/10 00:21:03;;;;;;;15.35;3.05;;;43.50;17.40;;;;;;5092601;28;20023;-64
2022/07/10 00:23:29;;;;;;;14.65;2.90;;;43.30;16.90;;;;;;5093192;28;20027;-64
2022/07/10 00:25:56;;;;;;;21.88;2.67;;;43.10;15.60;;;;;;5110718;28;20034;-65
2022/07/10 00:28:23;;;;;;;14.48;3.53;;;42.90;15.50;;;;;;5074937;28;20210;-65
2022/07/10 00:30:49;;;;;;;15.32;3.25;;;42.70;15.60;;;;;;5110071;28;20580;-66
2022/07/10 00:33:15;;;;;;;13.07;2.67;;;42.60;15.70;;;;;;5108559;28;20486;-70
2022/07/10 00:35:42;;;;;;;10.20;3.15;;;42.60;17.40;;;;;;5081240;28;20598;-67
2022/07/10 00:38:09;;;;;;;13.82;3.20;;;42.70;17.00;;;;;;5092339;28;20042;-67
2022/07/10 00:40:36;;;;;;;12.85;2.58;;;42.70;17.40;;;;;;5091961;28;20039;-66
2022/07/10 00:43:02;;;;;;;8.45;2.75;;;42.70;17.90;;;;;;5107370;28;20399;-63
2022/07/10 00:45:28;;;;;;;14.60;3.28;;;42.70;18.00;;;;;;5089760;28;20050;-65
2022/07/10 00:47:55;;;;;;;12.95;3.13;;;42.70;17.00;;;;;;5090059;28;20108;-63
2022/07/10 00:50:21;;;;;;;12.05;2.97;;;42.70;16.60;;;;;;5109133;28;20027;-64
2022/07/10 00:52:47;;;;;;;15.10;3.60;;;42.70;15.50;;;;;;5111072;28;20039;-65
2022/07/10 00:55:14;;;;;;;10.45;2.70;;;42.70;16.70;;;;;;5091655;28;20058;-64
2022/07/10 00:57:41;;;;;;;20.98;2.88;;;42.80;16.50;;;;;;5106294;28;20366;-62
2022/07/10 01:00:11;;;;;;;5.95;2.45;;;42.80;16.60;;;;;;5090936;28;20126;-64
2022/07/10 01:02:42;;;;;;;6.70;2.10;;;42.80;15.20;;;;;;5084794;28;20040;-67
2022/07/10 01:05:11;;;;;;;16.05;3.03;;;42.80;15.50;;;;;;5093446;28;20053;-65
2022/07/10 01:07:37;;;;;;;15.95;2.63;;;42.80;15.60;;;;;;5108391;28;20044;-64
2022/07/10 01:10:04;;;;;;;14.10;2.90;;;42.80;16.40;;;;;;5091286;28;20064;-64
2022/07/10 01:12:31;;;;;;;10.18;3.00;;;42.70;15.70;;;;;;5091356;28;20074;-65
2022/07/10 01:14:59;;;;;;;11.43;2.20;;;42.70;16.50;;;;;;5074262;28;20019;-63
2022/07/10 01:17:28;;;;;;;12.32;2.85;;;42.60;15.30;;;;;;5090301;28;20055;-65
2022/07/10 01:19:55;;;;;;;20.83;2.60;;;42.60;15.50;;;;;;5090595;28;20051;-63
2022/07/10 01:22:21;;;;;;;14.98;2.28;;;42.50;15.50;;;;;;5089496;28;20066;-63
2022/07/10 01:24:48;;;;;;;16.13;2.50;;;42.50;16.20;;;;;;5090833;28;20054;-63
2022/07/10 01:27:14;;;;;;;19.50;3.33;;;42.40;15.80;;;;;;5109121;28;20038;-65
2022/07/10 01:29:40;;;;;;;9.23;2.58;;;42.30;15.80;;;;;;5083457;28;20530;-63
2022/07/10 01:32:07;;;;;;;23.08;2.78;;;42.20;16.00;;;;;;5058337;28;20427;-64
2022/07/10 01:34:33;;;;;;;14.95;2.75;;;42.10;15.70;;;;;;5107491;28;20036;-64
2022/07/10 01:37:00;;;;;;;12.07;2.70;;;42.00;16.20;;;;;;5091683;28;20072;-64
2022/07/10 01:39:26;;;;;;;13.35;3.05;;;41.90;15.90;;;;;;5091117;28;20081;-64
2022/07/10 01:41:53;;;;;;;13.95;2.67;;;41.70;16.40;;;;;;5109124;28;20058;-64
2022/07/10 01:44:22;;;;;;;20.35;3.10;;;41.60;17.00;;;;;;5109771;28;20089;-63
2022/07/10 01:46:48;;;;;;;19.45;3.30;;;41.50;16.50;;;;;;5090918;28;20127;-64
2022/07/10 01:49:15;;;;;;;15.02;2.70;;;41.50;16.60;;;;;;5090530;28;20501;-64
2022/07/10 01:51:42;;;;;;;14.90;3.20;;;41.40;17.10;;;;;;5090207;28;20052;-64
2022/07/10 01:54:08;;;;;;;10.43;2.90;;;41.30;17.40;;;;;;5087230;28;20710;-64
2022/07/10 01:56:35;;;;;;;14.43;3.60;;;41.20;17.50;;;;;;5106237;28;20146;-64
2022/07/10 01:59:03;;;;;;;17.83;3.55;;;41.10;17.40;;;;;;5089622;28;20190;-65
2022/07/10 02:01:30;;;;;;;22.67;3.60;;;41.10;16.60;;;;;;5088819;28;20476;-63
2022/07/10 02:06:41;;;;;;;18.77;3.17;;;41.10;17.50;;;;;;5108673;28;20086;-63
2022/07/10 02:09:07;;;;;;;16.08;3.17;;;41.00;18.10;;;;;;5062136;28;20420;-63
2022/07/10 02:11:33;;;;;;;13.90;2.85;;;40.90;17.80;;;;;;5088858;28;20065;-63
2022/07/10 02:14:00;;;;;;;23.08;3.15;;;40.90;16.70;;;;;;5084508;28;20091;-63
2022/07/10 02:16:26;;;;;;;15.65;3.10;;;40.80;18.70;;;;;;5085005;28;20037;-63
2022/07/10 02:18:52;;;;;;;19.13;3.13;;;40.80;18.90;;;;;;5087109;28;20044;-63
2022/07/10 02:21:19;;;;;;;23.95;3.63;;;40.70;18.70;;;;;;5107937;28;20036;-64
2022/07/10 02:23:45;;;;;;;21.02;4.40;;;40.60;17.60;;;;;;5087560;28;20044;-63
2022/07/10 02:26:11;;;;;;;19.52;3.90;;;40.60;17.10;;;;;;5086316;28;20046;-64
2022/07/10 02:28:38;;;;;;;21.33;4.22;;;40.60;17.30;;;;;;5070489;28;20176;-63
2022/07/10 02:31:04;;;;;;;22.45;4.82;;;40.50;17.50;;;;;;5106421;28;20046;-64
2022/07/10 02:33:33;;;;;;;27.52;4.85;;;40.50;16.80;;;;;;5088919;28;20099;-64
2022/07/10 02:35:59;;;;;;;30.25;5.93;;;40.50;16.90;;;;;;5073950;28;20067;-63
2022/07/10 02:38:25;;;;;;;27.30;6.75;;;40.40;16.80;;;;;;5073299;28;20133;-64
2022/07/10 02:40:52;;;;;;;28.45;5.45;;;40.40;17.00;;;;;;5087730;28;20051;-65
2022/07/10 02:43:18;;;;;;;26.38;5.40;;;40.40;16.80;;;;;;5079717;28;20044;-67
2022/07/10 02:45:44;;;;;;;31.50;7.13;;;40.30;16.90;;;;;;5085989;28;20110;-64
2022/07/10 02:48:11;;;;;;;25.60;6.78;;;40.40;16.70;;;;;;5107926;28;20043;-67
2022/07/10 02:50:37;;;;;;;35.55;5.40;;;40.30;17.00;;;;;;5088742;28;20128;-63
2022/07/10 02:53:04;;;;;;;33.92;6.80;;;40.20;16.90;;;;;;5089397;28;20054;-62
2022/07/10 02:55:31;;;;;;;27.08;5.88;;;40.10;17.00;;;;;;5089140;28;20051;-66
2022/07/10 02:58:03;;;;;;;28.20;6.93;;;40.10;17.10;;;;;;5073805;28;20077;-63
2022/07/10 03:00:29;;;;;;;24.20;6.45;;;40.10;17.70;;;;;;5106126;28;20077;-62
2022/07/10 03:02:56;;;;;;;24.52;6.55;;;40.00;17.90;;;;;;5067329;28;20416;-62
2022/07/10 03:05:23;;;;;;;28.00;5.68;;;39.80;17.80;;;;;;5085928;28;20068;-63
2022/07/10 03:07:49;;;;;;;35.20;6.00;;;39.80;17.90;;;;;;5086039;28;20049;-64
2022/07/10 03:10:16;;;;;;;24.25;7.13;;;39.70;17.70;;;;;;5090089;28;20062;-64
2022/07/10 03:12:42;;;;;;;45.00;6.85;;;39.60;17.90;;;;;;5089767;28;20065;-63
2022/07/10 03:15:09;;;;;;;30.65;7.40;;;39.60;18.00;;;;;;5089702;28;20517;-63
2022/07/10 03:17:35;;;;;;;32.45;7.57;;;39.60;18.30;;;;;;5107234;28;20099;-65
2022/07/10 03:20:02;;;;;;;38.25;7.10;;;39.40;18.70;;;;;;5084634;28;20082;-62
2022/07/10 03:22:28;;;;;;;31.90;6.40;;;39.40;18.50;;;;;;5088649;28;20046;-62
2022/07/10 03:24:55;;;;;;;37.33;7.28;;;39.30;18.30;;;;;;5091114;28;20059;-58
2022/07/10 03:27:21;;;;;;;33.92;6.75;;;39.30;18.70;;;;;;5110109;28;20051;-62
2022/07/10 03:29:48;;;;;;;32.88;7.15;;;39.20;18.90;;;;;;5092587;28;20076;-63
2022/07/10 03:32:14;;;;;;;22.45;5.80;;;39.10;19.10;;;;;;5087600;28;20060;-63
2022/07/10 03:34:41;;;;;;;28.23;5.68;;;39.00;19.00;;;;;;5089142;28;20121;-63
2022/07/10 03:37:08;;;;;;;29.63;6.47;;;38.90;19.10;;;;;;5088791;28;20144;-62
2022/07/10 03:39:34;;;;;;;25.02;6.40;;;38.80;19.30;;;;;;5092214;28;20071;-62
2022/07/10 03:42:00;;;;;;;33.72;7.03;;;38.70;19.10;;;;;;5090027;28;20067;-63
2022/07/10 03:44:27;;;;;;;39.22;7.00;;;38.60;19.30;;;;;;5107340;28;20058;-63
2022/07/10 03:46:53;;;;;;;32.53;7.68;;;38.60;19.60;;;;;;5090691;28;20068;-63
2022/07/10 03:49:20;;;;;;;49.58;9.32;;;38.50;19.60;;;;;;5090687;28;20170;-62
2022/07/10 03:51:46;;;;;;;53.10;10.98;;;38.50;19.50;;;;;;5091490;28;20469;-62
2022/07/10 03:54:12;;;;;;;50.05;10.95;;;38.40;19.30;;;;;;5091212;28;20060;-64
2022/07/10 03:59:23;;;;;;;32.97;9.85;;;38.40;19.50;;;;;;5110620;28;20061;-63
2022/07/10 04:01:50;;;;;;;41.20;10.70;;;38.40;19.50;;;;;;5088439;28;20086;-63
2022/07/10 04:04:16;;;;;;;29.40;8.02;;;38.30;19.80;;;;;;5092343;28;20071;-63
2022/07/10 04:06:42;;;;;;;32.88;8.15;;;38.30;20.50;;;;;;5093012;28;20060;-68
2022/07/10 04:09:09;;;;;;;39.60;7.90;;;38.30;20.50;;;;;;5107774;28;20478;-66
2022/07/10 04:11:35;;;;;;;24.92;7.00;;;38.20;20.50;;;;;;5108114;28;20155;-67
2022/07/10 04:14:01;;;;;;;41.55;7.75;;;38.20;21.00;;;;;;5089452;28;20491;-66
2022/07/10 04:16:28;;;;;;;30.05;7.00;;;38.10;21.10;;;;;;5110411;28;20049;-65
2022/07/10 04:18:54;;;;;;;31.80;7.45;;;38.00;21.20;;;;;;5108398;28;20469;-67
2022/07/10 04:21:21;;;;;;;18.05;6.20;;;38.00;21.30;;;;;;5092267;28;20044;-66
2022/07/10 04:23:47;;;;;;;20.13;4.70;;;37.90;21.60;;;;;;5111020;28;20141;-67
2022/07/10 04:26:13;;;;;;;16.27;3.95;;;37.80;21.20;;;;;;5076017;28;20058;-66
2022/07/10 04:28:40;;;;;;;21.55;4.20;;;37.70;21.30;;;;;;5092538;28;20083;-67
2022/07/10 04:31:06;;;;;;;25.52;3.92;;;37.70;21.30;;;;;;5058691;28;20090;-66
2022/07/10 04:33:32;;;;;;;21.10;3.90;;;37.70;21.30;;;;;;5075202;28;20055;-67
2022/07/10 04:35:59;;;;;;;15.95;3.70;;;37.60;22.00;;;;;;5091321;28;20065;-65
2022/07/10 04:38:25;;;;;;;16.45;3.95;;;37.60;21.30;;;;;;5075526;28;20410;-66
2022/07/10 04:40:51;;;;;;;22.98;3.40;;;37.40;21.50;;;;;;5093141;28;20064;-66
2022/07/10 04:43:18;;;;;;;16.45;3.80;;;37.40;21.70;;;;;;5093047;28;20063;-67
2022/07/10 04:45:45;;;;;;;11.13;2.83;;;37.30;21.80;;;;;;5075545;28;20059;-66
2022/07/10 04:48:11;;;;;;;11.00;3.03;;;37.30;22.20;;;;;;5108566;28;20055;-67
2022/07/10 04:50:38;;;;;;;18.90;3.00;;;37.20;21.70;;;;;;5091266;28;20550;-67
2022/07/10 04:53:04;;;;;;;12.38;3.15;;;37.20;21.80;;;;;;5109411;28;20502;-67
2022/07/10 04:55:31;;;;;;;14.85;2.92;;;37.10;22.50;;;;;;5109810;28;20603;-66
2022/07/10 04:57:57;;;;;;;12.60;3.50;;;37.10;22.40;;;;;;5110055;28;20109;-66
2022/07/10 05:00:23;;;;;;;22.80;3.28;;;37.10;22.40;;;;;;5110309;28;20097;-67
2022/07/10 05:02:50;;;;;;;15.00;3.08;;;37.00;22.80;;;;;;5069020;28;20059;-66
2022/07/10 05:05:16;;;;;;;14.57;2.70;;;36.90;22.70;;;;;;5087358;28;20060;-66
2022/07/10 05:07:42;;;;;;;15.80;2.92;;;36.80;22.70;;;;;;5103065;28;20606;-66
2022/07/10 05:10:09;;;;;;;15.65;2.70;;;36.80;23.00;;;;;;5074263;28;20082;-69
2022/07/10 05:12:36;;;;;;;14.15;2.65;;;36.80;23.00;;;;;;5088708;28;20442;-69
2022/07/10 05:15:03;;;;;;;12.35;2.50;;;36.70;22.90;;;;;;5091854;28;20073;-67
2022/07/10 05:17:30;;;;;;;12.13;2.40;;;36.60;23.20;;;;;;5090433;28;20105;-69
2022/07/10 05:19:56;;;;;;;8.90;2.33;;;36.50;22.80;;;;;;5091069;28;20160;-68
2022/07/10 05:22:23;;;;;;;17.02;2.55;;;36.50;23.00;;;;;;5092500;28;20607;-66
2022/07/10 05:24:50;;;;;;;15.52;2.33;;;36.40;22.70;;;;;;5091515;28;20152;-69
2022/07/10 05:27:18;;;;;;;9.93;2.25;;;36.40;22.80;;;;;;5069057;28;20083;-66
2022/07/10 05:29:45;;;;;;;11.25;2.78;;;36.30;22.80;;;;;;5086528;28;20117;-68
2022/07/10 05:32:12;;;;;;;12.57;3.33;;;36.30;22.60;;;;;;5090574;28;20062;-66
2022/07/10 05:34:38;;;;;;;10.80;3.30;;;36.20;23.00;;;;;;5071023;28;20175;-68
2022/07/10 05:37:06;;;;;;;11.77;3.13;;;36.20;23.80;;;;;;5075239;28;20090;-68
2022/07/10 05:39:34;;;;;;;20.60;3.40;;;36.10;23.70;;;;;;5087704;28;20064;-67
2022/07/10 05:42:01;;;;;;;13.88;2.80;;;36.00;23.50;;;;;;5088880;28;20072;-67
2022/07/10 05:44:30;;;;;;;12.32;2.65;;;35.90;23.30;;;;;;5074199;28;20206;-67
2022/07/10 05:46:57;;;;;;;10.77;2.47;;;35.90;23.50;;;;;;5087651;28;20142;-65
2022/07/10 05:49:23;;;;;;;12.68;2.42;;;35.80;23.70;;;;;;5090970;28;20570;-68
2022/07/10 05:51:50;;;;;;;7.82;2.10;;;35.70;23.60;;;;;;5091227;28;20141;-66
2022/07/10 05:54:16;;;;;;;8.30;2.05;;;35.70;23.10;;;;;;5089586;28;20073;-66
2022/07/10 05:56:42;;;;;;;6.25;2.50;;;35.70;23.40;;;;;;5090136;28;20087;-66
2022/07/10 05:59:09;;;;;;;11.57;2.72;;;35.60;23.50;;;;;;5086951;28;20063;-65
2022/07/10 06:01:35;;;;;;;13.25;2.30;;;35.50;23.10;;;;;;5071336;28;20096;-66
2022/07/10 06:04:01;;;;;;;11.85;2.50;;;35.50;23.20;;;;;;5089154;28;20606;-67
2022/07/10 06:06:28;;;;;;;14.15;2.90;;;35.40;23.20;;;;;;5109937;28;20551;-67
2022/07/10 06:08:55;;;;;;;14.73;3.13;;;35.40;23.50;;;;;;5109299;28;20113;-67
2022/07/10 06:11:21;;;;;;;17.50;3.10;;;35.30;23.50;;;;;;5109518;28;20065;-66
2022/07/10 06:13:47;;;;;;;15.18;3.50;;;35.30;23.30;;;;;;5090390;28;20066;-67
2022/07/10 06:16:14;;;;;;;16.00;3.78;;;35.20;24.10;;;;;;5091229;28;20115;-65
2022/07/10 06:18:40;;;;;;;16.38;3.35;;;35.20;23.80;;;;;;5091134;28;20413;-67
2022/07/10 06:21:07;;;;;;;17.30;2.63;;;35.10;23.90;;;;;;5090977;28;21046;-67
2022/07/10 06:23:34;;;;;;;12.25;2.78;;;35.10;24.00;;;;;;5092085;28;20080;-69
2022/07/10 06:26:00;;;;;;;15.50;2.65;;;35.00;24.20;;;;;;5074425;28;20596;-66
2022/07/10 06:28:27;;;;;;;19.45;3.70;;;35.00;23.80;;;;;;5090859;28;20482;-67
2022/07/10 06:30:53;;;;;;;11.13;2.67;;;35.00;23.80;;;;;;5073015;28;20620;-67
2022/07/10 06:33:19;;;;;;;11.65;2.38;;;34.90;24.10;;;;;;5106224;28;20098;-66
2022/07/10 06:35:46;;;;;;;10.82;2.70;;;34.80;24.10;;;;;;5090150;28;20144;-66
2022/07/10 06:38:12;;;;;;;18.50;3.15;;;34.80;23.80;;;;;;5091254;28;20137;-69
2022/07/10 06:40:39;;;;;;;16.25;2.75;;;34.70;24.00;;;;;;5091027;28;20091;-67
2022/07/10 06:43:05;;;;;;;16.98;3.10;;;34.70;24.10;;;;;;5090774;28;20065;-67
2022/07/10 06:45:32;;;;;;;17.85;2.97;;;34.60;24.50;;;;;;5091212;28;20081;-66
2022/07/10 06:47:58;;;;;;;21.13;3.20;;;34.60;24.80;;;;;;5090046;28;20089;-65
2022/07/10 06:50:29;;;;;;;16.27;3.30;;;34.50;24.20;;;;;;5108869;28;20077;-67
2022/07/10 06:52:56;;;;;;;17.42;2.78;;;34.40;24.80;;;;;;5089905;28;20077;-65
2022/07/10 06:55:23;;;;;;;26.45;2.90;;;34.40;24.40;;;;;;5087782;28;20067;-67
2022/07/10 06:57:49;;;;;;;11.15;2.35;;;34.30;24.90;;;;;;5075161;28;20079;-67
2022/07/10 07:00:16;;;;;;;15.73;3.28;;;34.20;24.50;;;;;;5094724;28;20069;-67
2022/07/10 07:02:43;;;;;;;14.57;3.13;;;34.20;24.60;;;;;;5106053;28;20499;-69
2022/07/10 07:05:10;;;;;;;23.13;3.65;;;34.20;25.00;;;;;;5082661;28;20074;-66
2022/07/10 07:07:36;;;;;;;16.38;3.38;;;34.20;24.90;;;;;;5094744;28;20250;-65
2022/07/10 07:10:04;;;;;;;10.43;3.13;;;34.10;25.20;;;;;;5094786;28;20094;-67
2022/07/10 07:12:30;;;;;;;15.50;2.95;;;34.10;24.70;;;;;;5094624;28;20061;-66
2022/07/10 07:14:56;;;;;;;14.45;2.72;;;34.10;24.60;;;;;;5095008;28;20592;-66
2022/07/10 07:17:25;;;;;;;16.75;2.72;;;34.10;25.10;;;;;;5091502;28;20135;-66
2022/07/10 07:25:29;;;;;;;18.17;2.72;;;33.90;24.80;;;;;;5109165;28;20074;-67
2022/07/10 07:27:56;;;;;;;17.27;2.33;;;33.90;25.00;;;;;;5111997;28;20603;-66
2022/07/10 07:30:22;;;;;;;13.93;2.83;;;33.80;26.00;;;;;;5093293;28;20213;-67
2022/07/10 07:32:48;;;;;;;15.50;3.20;;;33.70;25.80;;;;;;5092428;28;20100;-67
2022/07/10 07:35:17;;;;;;;14.40;3.13;;;33.70;25.80;;;;;;5094415;28;20083;-67
2022/07/10 07:37:46;;;;;;;20.73;2.60;;;33.60;25.90;;;;;;5078726;28;20090;-66
2022/07/10 07:40:22;;;;;;;11.50;2.65;;;33.50;26.90;;;;;;5113362;28;20091;-66
2022/07/10 07:42:49;;;;;;;;;;;33.40;27.40;;;;;;5092935;28;20091;-68
2022/07/10 07:45:15;;;;;;;;;;;33.40;27.80;;;;;;5094937;28;19971;-68
2022/07/10 07:47:47;;;;;;;13.02;2.03;;;33.30;27.90;;;;;;5093500;28;19994;-67
2022/07/10 07:50:19;;;;;;;14.20;2.60;;;33.20;28.10;;;;;;5094061;28;20089;-67
2022/07/10 07:52:46;;;;;;;11.43;2.58;;;33.20;28.50;;;;;;5092886;28;20062;-67
2022/07/10 07:55:14;;;;;;;13.77;2.03;;;33.10;28.20;;;;;;5091942;28;20078;-67
2022/07/10 07:57:42;;;;;;;14.45;2.60;;;33.10;28.30;;;;;;5090386;28;20067;-67
2022/07/10 08:00:09;;;;;;;19.40;2.90;;;33.10;28.60;;;;;;5111418;28;20093;-67
2022/07/10 08:02:36;;;;;;;24.38;2.85;;;33.10;28.80;;;;;;5093880;28;20087;-67
2022/07/10 08:05:06;;;;;;;18.52;3.08;;;32.90;28.60;;;;;;5093995;28;20127;-69
2022/07/10 08:07:44;;;;;;;19.63;3.05;;;32.90;29.10;;;;;;5101633;28;20159;-71
2022/07/10 08:10:17;;;;;;;15.35;2.67;;;32.90;29.00;;;;;;5089297;28;20083;-69
2022/07/10 08:12:46;;;;;;;16.08;3.20;;;32.90;28.70;;;;;;5076140;28;20431;-67
2022/07/10 08:15:14;;;;;;;13.55;2.67;;;32.80;28.40;;;;;;5074655;28;20072;-67
2022/07/10 08:17:41;;;;;;;22.17;3.38;;;32.80;28.50;;;;;;5090999;28;20091;-66
2022/07/10 08:20:11;;;;;;;22.73;3.33;;;33.00;28.60;;;;;;5086774;28;20409;-69
2022/07/10 08:22:39;;;;;;;15.02;2.20;;;33.30;27.50;;;;;;5112330;28;20147;-69
2022/07/10 08:25:06;;;;;;;23.05;2.85;;;33.40;26.90;;;;;;5109100;28;20136;-69
2022/07/10 08:27:32;;;;;;;19.35;2.38;;;33.50;27.60;;;;;;5088714;28;20098;-67
2022/07/10 08:29:59;;;;;;;17.85;2.53;;;33.50;26.70;;;;;;5088523;28;20098;-69
2022/07/10 08:32:26;;;;;;;12.55;2.30;;;33.60;26.90;;;;;;5093340;28;20544;-68
2022/07/10 08:34:52;;;;;;;15.45;2.25;;;33.60;27.30;;;;;;5093342;28;20071;-69
2022/07/10 08:37:19;;;;;;;11.43;2.08;;;33.50;27.20;;;;;;5110711;28;20552;-68
2022/07/10 08:39:46;;;;;;;15.32;2.65;;;33.60;27.10;;;;;;5093615;28;20164;-68
2022/07/10 08:42:12;;;;;;;14.18;2.20;;;33.50;26.60;;;;;;5093255;28;20445;-67
2022/07/10 08:44:39;;;;;;;13.95;2.13;;;33.50;26.80;;;;;;5107168;28;20104;-71
2022/07/10 08:47:06;;;;;;;12.73;2.35;;;33.30;26.50;;;;;;5093398;28;20075;-68
2022/07/10 08:49:35;;;;;;;12.07;2.17;;;33.40;26.20;;;;;;5110466;28;20558;-67
2022/07/10 08:52:17;;;;;;;15.63;2.60;;;33.40;26.50;;;;;;5093038;28;20078;-69
2022/07/10 08:54:44;;;;;;;11.23;2.50;;;33.40;26.40;;;;;;5092433;28;20582;-68
2022/07/10 08:57:11;;;;;;;11.07;1.85;;;33.30;26.20;;;;;;5090715;28;20071;-68
2022/07/10 08:59:37;;;;;;;11.40;2.03;;;33.40;26.00;;;;;;5090184;28;20078;-70
2022/07/10 09:02:04;;;;;;;7.97;1.58;;;33.30;25.90;;;;;;5091192;28;20075;-70
2022/07/10 09:04:30;;;;;;;9.20;1.80;;;33.30;26.20;;;;;;5092325;28;20187;-67
2022/07/10 09:06:57;;;;;;;7.45;2.00;;;33.20;26.20;;;;;;5091991;28;20079;-71
2022/07/10 09:09:26;;;;;;;12.23;2.08;;;33.20;26.30;;;;;;5091349;28;20181;-68
2022/07/10 09:11:57;;;;;;;10.05;1.58;;;33.10;26.70;;;;;;5087211;28;20067;-65
2022/07/10 09:14:25;;;;;;;12.90;2.20;;;33.10;26.90;;;;;;5091782;28;20436;-68
2022/07/10 09:16:52;;;;;;;14.10;2.10;;;33.10;26.50;;;;;;5090706;28;20460;-66
2022/07/10 09:19:27;;;;;;;10.20;2.38;;;33.10;27.00;;;;;;5110688;28;20071;-67
2022/07/10 09:21:59;;;;;;;15.80;2.42;;;33.00;26.70;;;;;;5090072;28;20075;-67
2022/07/10 09:24:26;;;;;;;15.45;2.30;;;33.00;27.10;;;;;;5080604;28;20087;-69
2022/07/10 09:27:05;;;;;;;15.05;2.10;;;32.90;26.90;;;;;;5086357;28;20081;-67
2022/07/10 09:29:33;;;;;;;12.88;2.00;;;32.80;26.80;;;;;;5101580;28;20148;-67
2022/07/10 09:32:01;;;;;;;14.65;2.33;;;32.70;26.60;;;;;;5086477;28;20107;-68
2022/07/10 09:34:39;;;;;;;8.20;2.25;;;32.70;26.60;;;;;;5087091;28;20071;-67
2022/07/10 09:37:18;;;;;;;9.60;2.00;;;32.70;27.30;;;;;;5087557;28;20087;-68
2022/07/10 09:39:58;;;;;;;8.38;2.60;;;32.70;27.90;;;;;;5088849;28;20418;-68
2022/07/10 09:42:26;;;;;;;15.10;2.30;;;32.60;27.60;;;;;;5090865;28;20436;-68
2022/07/10 09:45:12;;;;;;;7.18;2.63;;;32.60;27.90;;;;;;5109499;28;20067;-69
2022/07/10 09:47:40;;;;;;;12.63;2.38;;;32.50;27.80;;;;;;5091923;28;20132;-68
2022/07/10 09:50:31;;;;;;;16.17;2.60;;;32.60;27.50;;;;;;5107072;28;20083;-69
2022/07/10 09:53:06;;;;;;;11.13;2.00;;;32.50;27.40;;;;;;5088827;28;20086;-67
2022/07/10 09:55:35;;;;;;;8.57;2.10;;;32.50;27.50;;;;;;5088346;28;20082;-67
2022/07/10 09:58:06;;;;;;;16.38;2.42;;;32.40;26.90;;;;;;5088681;28;20071;-66
2022/07/10 10:00:35;;;;;;;15.60;2.50;;;32.30;27.30;;;;;;5090474;28;20074;-70
2022/07/10 10:03:06;;;;;;;16.98;2.40;;;32.30;28.10;;;;;;5090424;28;20079;-68
2022/07/10 10:05:36;;;;;;;15.57;2.63;;;32.30;28.20;;;;;;5090868;28;20109;-68
2022/07/10 10:08:10;;;;;;;17.48;2.55;;;32.30;27.80;;;;;;5083075;28;20727;-65
2022/07/10 10:10:44;;;;;;;13.38;2.22;;;32.20;29.70;;;;;;5084053;28;20087;-68
2022/07/10 10:13:12;;;;;;;13.93;3.00;;;32.10;28.60;;;;;;5091016;28;20067;-67
2022/07/10 10:15:39;;;;;;;10.13;2.47;;;32.10;28.50;;;;;;5091168;28;20079;-68
2022/07/10 10:18:06;;;;;;;8.65;2.15;;;32.00;28.60;;;;;;5087740;28;20090;-68
2022/07/10 10:20:42;;;;;;;8.73;2.28;;;32.00;28.30;;;;;;5107660;28;20075;-67
2022/07/10 10:23:14;;;;;;;11.75;2.40;;;31.90;28.10;;;;;;5110379;28;20103;-68
2022/07/10 10:25:40;;;;;;;13.73;2.58;;;31.90;28.50;;;;;;5091063;28;20078;-68
2022/07/10 10:28:10;;;;;;;13.50;2.38;;;31.90;28.20;;;;;;5092651;28;20140;-67
2022/07/10 10:30:42;;;;;;;13.82;2.42;;;31.80;28.10;;;;;;5090405;28;20087;-67
2022/07/10 10:33:30;;;;;;;12.30;2.80;;;31.70;27.70;;;;;;5073116;28;20207;-70
2022/07/10 10:35:57;;;;;;;13.30;2.30;;;31.60;28.00;;;;;;5107696;28;20083;-70
2022/07/10 10:38:24;;;;;;;11.45;3.22;;;31.60;28.70;;;;;;5105392;28;20427;-67
2022/07/10 10:40:50;;;;;;;15.80;3.17;;;31.60;28.60;;;;;;5085515;28;20144;-68
2022/07/10 10:43:20;;;;;;;13.15;2.75;;;31.60;28.50;;;;;;5088822;28;20086;-69
2022/07/10 10:45:51;;;;;;;13.57;2.40;;;31.50;28.00;;;;;;5090653;28;20152;-68
2022/07/10 10:48:21;;;;;;;10.32;3.30;;;31.40;28.20;;;;;;5107276;28;20090;-67
2022/07/10 10:50:52;;;;;;;17.88;2.90;;;31.50;28.30;;;;;;5089794;28;20091;-68
2022/07/10 10:53:31;;;;;;;7.45;3.00;;;31.40;29.80;;;;;;5094759;28;20068;-67
2022/07/10 10:56:00;;;;;;;17.90;3.20;;;31.30;30.00;;;;;;5107431;28;20079;-66
2022/07/10 10:58:28;;;;;;;15.30;2.95;;;31.30;29.50;;;;;;5106891;28;21227;-67
2022/07/10 11:01:05;;;;;;;11.10;2.67;;;31.30;29.70;;;;;;5104181;28;20079;-68
2022/07/10 11:03:32;;;;;;;8.57;2.53;;;31.30;30.10;;;;;;5105850;28;20071;-67
2022/07/10 11:05:58;;;;;;;10.23;2.60;;;31.30;29.90;;;;;;5089503;28;20071;-68
2022/07/10 11:08:43;;;;;;;11.63;2.40;;;31.30;29.40;;;;;;5090165;28;20075;-67
2022/07/10 11:11:31;;;;;;;16.10;2.65;;;31.20;29.50;;;;;;5090510;28;20090;-68
2022/07/10 11:13:58;;;;;;;8.98;2.78;;;31.20;31.10;;;;;;5089660;28;20090;-68
2022/07/10 11:16:25;;;;;;;13.15;2.70;;;31.10;30.00;;;;;;5088387;28;20067;-67
2022/07/10 11:18:55;;;;;;;10.02;2.65;;;31.00;29.50;;;;;;5080430;28;20114;-68
2022/07/10 11:21:25;;;;;;;16.38;2.65;;;31.00;29.50;;;;;;5084700;28;20071;-67
2022/07/10 11:24:11;;;;;;;9.73;2.30;;;30.90;29.80;;;;;;5105927;28;21655;-68
2022/07/10 11:26:54;;;;;;;7.13;2.35;;;30.90;30.20;;;;;;5103238;28;20116;-67
2022/07/10 11:29:20;;;;;;;10.25;2.38;;;30.90;30.40;;;;;;5087767;28;20167;-68
2022/07/10 11:31:56;;;;;;;16.80;2.47;;;30.90;32.00;;;;;;5089917;28;21084;-69
2022/07/10 11:34:23;;;;;;;13.77;3.20;;;30.90;31.20;;;;;;5090116;28;20090;-69
2022/07/10 11:36:49;;;;;;;17.27;2.75;;;30.90;31.80;;;;;;5090187;28;20115;-68
2022/07/10 11:39:16;;;;;;;11.50;2.72;;;30.90;31.30;;;;;;5088066;28;20071;-67
2022/07/10 11:41:45;;;;;;;13.55;2.97;;;30.70;30.80;;;;;;5089765;28;20160;-68
2022/07/10 11:44:17;;;;;;;18.23;3.63;;;30.70;31.00;;;;;;5091907;28;20096;-69
2022/07/10 11:46:44;;;;;;;11.35;3.92;;;30.70;31.20;;;;;;5093875;28;20128;-66
2022/07/10 11:49:13;;;;;;;11.80;4.00;;;30.70;31.30;;;;;;5092209;28;20078;-67
2022/07/10 11:51:40;;;;;;;11.57;3.90;;;30.70;30.60;;;;;;5092168;28;20071;-67
2022/07/10 11:54:24;;;;;;;16.73;3.80;;;30.70;32.10;;;;;;5109158;28;20101;-68
2022/07/10 11:56:52;;;;;;;17.42;4.22;;;30.60;33.30;;;;;;5091871;28;20106;-68
2022/07/10 11:59:28;;;;;;;18.98;3.47;;;30.60;31.30;;;;;;5091403;28;20121;-68
2022/07/10 12:01:56;;;;;;;19.17;3.78;;;30.60;32.40;;;;;;5109788;28;20580;-69
2022/07/10 12:04:25;;;;;;;19.02;3.85;;;30.50;31.50;;;;;;5110950;28;20082;-68
2022/07/10 12:06:53;;;;;;;35.33;7.50;;;30.50;32.00;;;;;;5093713;28;20520;-67
2022/07/10 12:09:22;;;;;;;49.90;9.25;;;30.50;30.60;;;;;;5093918;28;20079;-67
2022/07/10 12:12:06;;;;;;;59.10;10.13;;;30.50;30.50;;;;;;5082931;28;20078;-67
2022/07/10 12:14:33;;;;;;;77.40;10.45;;;30.50;30.80;;;;;;5088693;28;20075;-68
2022/07/10 12:17:00;;;;;;;56.95;9.70;;;30.50;30.80;;;;;;5072887;28;20078;-67
2022/07/10 12:19:30;;;;;;;61.28;10.27;;;30.40;30.70;;;;;;5104840;28;20102;-68
2022/07/10 12:21:58;;;;;;;45.80;10.23;;;30.40;30.90;;;;;;5109264;28;20082;-67
2022/07/10 12:24:26;;;;;;;60.65;11.65;;;30.30;31.40;;;;;;5094045;28;20075;-66
2022/07/10 12:26:55;;;;;;;62.28;11.05;;;30.30;31.80;;;;;;5111225;28;20067;-70
2022/07/10 12:29:27;;;;;;;66.20;10.80;;;30.30;32.10;;;;;;5111124;28;20144;-68
2022/07/10 12:32:01;;;;;;;57.70;11.95;;;30.30;32.10;;;;;;5091892;28;20077;-68
2022/07/10 12:34:58;;;;;;;56.28;12.95;;;30.30;33.00;;;;;;5091617;28;20635;-68
2022/07/10 12:37:24;;;;;;;49.28;12.75;;;30.30;35.40;;;;;;5091157;28;20102;-68
2022/07/10 12:39:53;;;;;;;56.03;13.60;;;30.20;35.40;;;;;;5091211;28;20533;-68
2022/07/10 12:42:30;;;;;;;50.03;11.32;;;30.20;35.50;;;;;;5089054;28;20078;-68
2022/07/10 12:45:15;;;;;;;38.25;11.30;;;30.20;35.40;;;;;;5085720;28;20093;-68
2022/07/10 12:47:46;;;;;;;52.00;13.60;;;30.20;35.80;;;;;;5108191;28;20496;-68
2022/07/10 12:50:13;;;;;;;45.90;12.10;;;30.20;36.00;;;;;;5092686;28;20078;-67
2022/07/10 12:52:40;;;;;;;38.50;12.35;;;30.20;36.00;;;;;;5110894;28;20147;-67
2022/07/10 12:55:14;;;;;;;49.47;13.10;;;30.20;36.10;;;;;;5110333;28;20521;-68